sensor_id;sensor_type;location;lat;lon;timestamp;P1;durP1;ratioP1;P2;durP2;ratioP2
16460;SDS011;8341;42.048;24.650;2022-11-20T00:00:15;4.90;;;2.42;;
16460;SDS011;8341;42.048;24.650;2022-11-20T00:02:42;11.63;;;8.80;;
16460;SDS011;8341;42.048;24.650;2022-11-20T00:05:09;5.13;;;3.70;;
16460;SDS011;8341;42.048;24.650;2022-11-20T00:07:36;3.45;;;1.85;;
16460;SDS011;8341;42.048;24.650;2022-11-20T00:10:03;4.55;;;2.20;;
16460;SDS011;8341;42.048;24.650;2022-11-20T00:12:30;4.05;;;2.70;;
16460;SDS011;8341;42.048;24.650;2022-11-20T00:14:59;3.55;;;2.20;;
16460;SDS011;8341;42.048;24.650;2022-11-20T00:17:26;2.70;;;1.70;;
16460;SDS011;8341;42.048;24.650;2022-11-20T00:19:52;4.88;;;2.08;;
16460;SDS011;8341;42.048;24.650;2022-11-20T00:22:19;2.42;;;1.67;;
16460;SDS011;8341;42.048;24.650;2022-11-20T00:24:46;5.35;;;2.97;;
16460;SDS011;8341;42.048;24.650;2022-11-20T00:27:13;3.05;;;1.30;;
16460;SDS011;8341;42.048;24.650;2022-11-20T00:29:39;3.45;;;2.35;;
16460;SDS011;8341;42.048;24.650;2022-11-20T00:32:07;2.30;;;1.70;;
16460;SDS011;8341;42.048;24.650;2022-11-20T00:34:34;3.38;;;1.00;;
16460;SDS011;8341;42.048;24.650;2022-11-20T00:37:01;2.92;;;1.30;;
16460;SDS011;8341;42.048;24.650;2022-11-20T00:39:27;1.88;;;1.00;;
16460;SDS011;8341;42.048;24.650;2022-11-20T00:41:55;2.42;;;1.50;;
16460;SDS011;8341;42.048;24.650;2022-11-20T00:44:22;1.00;;;0.90;;
16460;SDS011;8341;42.048;24.650;2022-11-20T00:46:49;3.78;;;0.80;;
16460;SDS011;8341;42.048;24.650;2022-11-20T00:49:17;2.50;;;1.10;;
16460;SDS011;8341;42.048;24.650;2022-11-20T00:51:44;2.53;;;0.90;;
16460;SDS011;8341;42.048;24.650;2022-11-20T00:54:10;2.05;;;0.90;;
16460;SDS011;8341;42.048;24.650;2022-11-20T00:56:37;2.17;;;1.15;;
16460;SDS011;8341;42.048;24.650;2022-11-20T00:59:05;3.75;;;1.10;;
16460;SDS011;8341;42.048;24.650;2022-11-20T01:01:32;4.15;;;1.10;;
16460;SDS011;8341;42.048;24.650;2022-11-20T01:03:59;3.90;;;0.90;;
16460;SDS011;8341;42.048;24.650;2022-11-20T01:06:28;3.08;;;1.17;;
16460;SDS011;8341;42.048;24.650;2022-11-20T01:08:57;4.85;;;1.45;;
16460;SDS011;8341;42.048;24.650;2022-11-20T01:11:25;6.18;;;1.42;;
16460;SDS011;8341;42.048;24.650;2022-11-20T01:13:54;2.90;;;1.65;;
16460;SDS011;8341;42.048;24.650;2022-11-20T01:16:22;2.60;;;1.70;;
16460;SDS011;8341;42.048;24.650;2022-11-20T01:18:50;1.50;;;0.60;;
16460;SDS011;8341;42.048;24.650;2022-11-20T01:21:20;2.30;;;0.95;;
16460;SDS011;8341;42.048;24.650;2022-11-20T01:23:49;3.20;;;1.00;;
16460;SDS011;8341;42.048;24.650;2022-11-20T01:26:17;2.78;;;1.30;;
16460;SDS011;8341;42.048;24.650;2022-11-20T01:28:45;2.33;;;1.33;;
16460;SDS011;8341;42.048;24.650;2022-11-20T01:31:13;4.55;;;1.13;;
16460;SDS011;8341;42.048;24.650;2022-11-20T01:33:42;3.03;;;1.10;;
16460;SDS011;8341;42.048;24.650;2022-11-20T01:36:10;3.03;;;1.27;;
16460;SDS011;8341;42.048;24.650;2022-11-20T01:38:39;1.98;;;0.98;;
16460;SDS011;8341;42.048;24.650;2022-11-20T01:41:07;3.40;;;0.93;;
16460;SDS011;8341;42.048;24.650;2022-11-20T01:43:35;1.52;;;0.90;;
16460;SDS011;8341;42.048;24.650;2022-11-20T01:46:03;3.85;;;0.80;;
16460;SDS011;8341;42.048;24.650;2022-11-20T01:48:42;1.60;;;0.80;;
16460;SDS011;8341;42.048;24.650;2022-11-20T01:51:17;2.45;;;0.80;;
16460;SDS011;8341;42.048;24.650;2022-11-20T01:53:50;2.33;;;1.10;;
16460;SDS011;8341;42.048;24.650;2022-11-20T01:56:20;2.70;;;0.95;;
16460;SDS011;8341;42.048;24.650;2022-11-20T01:58:51;1.65;;;1.00;;
16460;SDS011;8341;42.048;24.650;2022-11-20T02:01:22;2.65;;;1.10;;
16460;SDS011;8341;42.048;24.650;2022-11-20T02:03:49;1.77;;;0.90;;
16460;SDS011;8341;42.048;24.650;2022-11-20T02:06:17;4.22;;;1.10;;
16460;SDS011;8341;42.048;24.650;2022-11-20T02:08:49;3.25;;;0.90;;
16460;SDS011;8341;42.048;24.650;2022-11-20T02:11:16;3.03;;;0.80;;
16460;SDS011;8341;42.048;24.650;2022-11-20T02:13:44;2.40;;;0.90;;
16460;SDS011;8341;42.048;24.650;2022-11-20T02:16:12;1.33;;;0.80;;
16460;SDS011;8341;42.048;24.650;2022-11-20T02:18:42;4.55;;;0.90;;
16460;SDS011;8341;42.048;24.650;2022-11-20T02:21:13;2.78;;;0.70;;
16460;SDS011;8341;42.048;24.650;2022-11-20T02:26:35;2.58;;;0.70;;
16460;SDS011;8341;42.048;24.650;2022-11-20T02:29:07;1.20;;;0.80;;
16460;SDS011;8341;42.048;24.650;2022-11-20T02:31:35;2.22;;;0.60;;
16460;SDS011;8341;42.048;24.650;2022-11-20T02:34:03;2.63;;;0.70;;
16460;SDS011;8341;42.048;24.650;2022-11-20T02:36:30;2.33;;;1.55;;
16460;SDS011;8341;42.048;24.650;2022-11-20T02:38:59;1.25;;;1.00;;
16460;SDS011;8341;42.048;24.650;2022-11-20T02:41:31;2.78;;;0.93;;
16460;SDS011;8341;42.048;24.650;2022-11-20T02:43:59;1.65;;;0.77;;
16460;SDS011;8341;42.048;24.650;2022-11-20T02:46:27;3.63;;;0.90;;
16460;SDS011;8341;42.048;24.650;2022-11-20T02:48:53;1.33;;;0.70;;
16460;SDS011;8341;42.048;24.650;2022-11-20T02:51:20;2.45;;;0.60;;
16460;SDS011;8341;42.048;24.650;2022-11-20T02:53:47;0.75;;;0.50;;
16460;SDS011;8341;42.048;24.650;2022-11-20T02:56:14;2.45;;;0.90;;
16460;SDS011;8341;42.048;24.650;2022-11-20T02:58:43;2.83;;;0.80;;
16460;SDS011;8341;42.048;24.650;2022-11-20T03:01:10;2.25;;;0.68;;
16460;SDS011;8341;42.048;24.650;2022-11-20T03:03:36;2.97;;;0.70;;
16460;SDS011;8341;42.048;24.650;2022-11-20T03:06:03;2.15;;;0.90;;
16460;SDS011;8341;42.048;24.650;2022-11-20T03:08:30;2.70;;;0.70;;
16460;SDS011;8341;42.048;24.650;2022-11-20T03:11:01;3.33;;;0.88;;
16460;SDS011;8341;42.048;24.650;2022-11-20T03:13:29;2.95;;;0.52;;
16460;SDS011;8341;42.048;24.650;2022-11-20T03:15:57;2.17;;;1.60;;
16460;SDS011;8341;42.048;24.650;2022-11-20T03:18:24;5.10;;;1.73;;
16460;SDS011;8341;42.048;24.650;2022-11-20T03:20:56;1.98;;;1.00;;
16460;SDS011;8341;42.048;24.650;2022-11-20T03:23:23;2.10;;;1.15;;
16460;SDS011;8341;42.048;24.650;2022-11-20T03:25:50;0.77;;;0.70;;
16460;SDS011;8341;42.048;24.650;2022-11-20T03:28:16;1.02;;;0.60;;
16460;SDS011;8341;42.048;24.650;2022-11-20T03:30:43;1.48;;;0.60;;
16460;SDS011;8341;42.048;24.650;2022-11-20T03:33:11;1.83;;;0.60;;
16460;SDS011;8341;42.048;24.650;2022-11-20T03:35:38;1.92;;;0.82;;
16460;SDS011;8341;42.048;24.650;2022-11-20T03:38:05;2.53;;;0.70;;
16460;SDS011;8341;42.048;24.650;2022-11-20T03:40:31;1.65;;;1.55;;
16460;SDS011;8341;42.048;24.650;2022-11-20T03:43:00;2.63;;;1.20;;
16460;SDS011;8341;42.048;24.650;2022-11-20T03:45:26;2.15;;;0.90;;
16460;SDS011;8341;42.048;24.650;2022-11-20T03:47:53;1.10;;;0.70;;
16460;SDS011;8341;42.048;24.650;2022-11-20T03:50:21;2.00;;;0.88;;
16460;SDS011;8341;42.048;24.650;2022-11-20T03:52:48;4.22;;;1.60;;
16460;SDS011;8341;42.048;24.650;2022-11-20T03:55:15;2.47;;;0.90;;
16460;SDS011;8341;42.048;24.650;2022-11-20T03:57:42;2.88;;;1.02;;
16460;SDS011;8341;42.048;24.650;2022-11-20T04:00:09;1.92;;;1.10;;
16460;SDS011;8341;42.048;24.650;2022-11-20T04:02:37;3.00;;;1.23;;
16460;SDS011;8341;42.048;24.650;2022-11-20T04:05:41;3.22;;;1.48;;
16460;SDS011;8341;42.048;24.650;2022-11-20T04:08:38;3.72;;;3.10;;
16460;SDS011;8341;42.048;24.650;2022-11-20T04:11:12;8.30;;;6.30;;
16460;SDS011;8341;42.048;24.650;2022-11-20T04:13:45;4.38;;;2.83;;
16460;SDS011;8341;42.048;24.650;2022-11-20T04:16:13;7.75;;;5.03;;
16460;SDS011;8341;42.048;24.650;2022-11-20T04:18:41;3.13;;;2.67;;
16460;SDS011;8341;42.048;24.650;2022-11-20T04:21:10;3.75;;;3.33;;
16460;SDS011;8341;42.048;24.650;2022-11-20T04:23:37;15.93;;;13.48;;
16460;SDS011;8341;42.048;24.650;2022-11-20T04:26:07;9.27;;;5.93;;
16460;SDS011;8341;42.048;24.650;2022-11-20T04:28:35;9.88;;;7.38;;
16460;SDS011;8341;42.048;24.650;2022-11-20T04:31:03;6.72;;;5.55;;
16460;SDS011;8341;42.048;24.650;2022-11-20T04:33:31;9.35;;;6.88;;
16460;SDS011;8341;42.048;24.650;2022-11-20T04:36:02;22.70;;;16.58;;
16460;SDS011;8341;42.048;24.650;2022-11-20T04:38:32;9.35;;;7.25;;
16460;SDS011;8341;42.048;24.650;2022-11-20T04:41:00;17.85;;;15.10;;
16460;SDS011;8341;42.048;24.650;2022-11-20T04:43:28;10.65;;;8.02;;
16460;SDS011;8341;42.048;24.650;2022-11-20T04:45:56;12.32;;;8.60;;
16460;SDS011;8341;42.048;24.650;2022-11-20T04:48:24;5.60;;;3.20;;
16460;SDS011;8341;42.048;24.650;2022-11-20T04:50:52;7.32;;;4.75;;
16460;SDS011;8341;42.048;24.650;2022-11-20T04:53:20;11.43;;;8.02;;
16460;SDS011;8341;42.048;24.650;2022-11-20T04:55:49;6.55;;;5.07;;
16460;SDS011;8341;42.048;24.650;2022-11-20T04:58:16;10.07;;;7.30;;
16460;SDS011;8341;42.048;24.650;2022-11-20T05:00:42;10.20;;;5.90;;
16460;SDS011;8341;42.048;24.650;2022-11-20T05:03:09;7.45;;;3.05;;
16460;SDS011;8341;42.048;24.650;2022-11-20T05:05:36;4.72;;;3.10;;
16460;SDS011;8341;42.048;24.650;2022-11-20T05:08:03;7.30;;;3.80;;
16460;SDS011;8341;42.048;24.650;2022-11-20T05:10:30;8.80;;;6.18;;
16460;SDS011;8341;42.048;24.650;2022-11-20T05:12:58;5.50;;;3.35;;
16460;SDS011;8341;42.048;24.650;2022-11-20T05:15:25;8.23;;;4.65;;
16460;SDS011;8341;42.048;24.650;2022-11-20T05:17:52;8.20;;;5.18;;
16460;SDS011;8341;42.048;24.650;2022-11-20T05:20:19;3.60;;;3.15;;
16460;SDS011;8341;42.048;24.650;2022-11-20T05:22:46;7.03;;;5.05;;
16460;SDS011;8341;42.048;24.650;2022-11-20T05:25:13;4.80;;;3.70;;
16460;SDS011;8341;42.048;24.650;2022-11-20T05:27:39;5.68;;;2.67;;
16460;SDS011;8341;42.048;24.650;2022-11-20T05:30:08;6.18;;;2.28;;
16460;SDS011;8341;42.048;24.650;2022-11-20T05:32:36;6.50;;;4.32;;
16460;SDS011;8341;42.048;24.650;2022-11-20T05:35:03;9.55;;;4.80;;
16460;SDS011;8341;42.048;24.650;2022-11-20T05:37:30;4.85;;;3.00;;
16460;SDS011;8341;42.048;24.650;2022-11-20T05:39:57;4.18;;;2.50;;
16460;SDS011;8341;42.048;24.650;2022-11-20T05:42:24;3.17;;;2.65;;
16460;SDS011;8341;42.048;24.650;2022-11-20T05:44:57;3.72;;;1.67;;
16460;SDS011;8341;42.048;24.650;2022-11-20T05:47:25;2.85;;;2.17;;
16460;SDS011;8341;42.048;24.650;2022-11-20T05:49:52;4.72;;;1.17;;
16460;SDS011;8341;42.048;24.650;2022-11-20T05:52:19;2.63;;;1.33;;
16460;SDS011;8341;42.048;24.650;2022-11-20T05:54:46;12.60;;;6.10;;
16460;SDS011;8341;42.048;24.650;2022-11-20T05:57:13;15.52;;;11.57;;
16460;SDS011;8341;42.048;24.650;2022-11-20T05:59:39;6.72;;;3.85;;
16460;SDS011;8341;42.048;24.650;2022-11-20T06:02:06;6.47;;;3.22;;
16460;SDS011;8341;42.048;24.650;2022-11-20T06:04:35;5.72;;;2.97;;
16460;SDS011;8341;42.048;24.650;2022-11-20T06:07:01;3.92;;;2.35;;
16460;SDS011;8341;42.048;24.650;2022-11-20T06:09:28;4.53;;;3.33;;
16460;SDS011;8341;42.048;24.650;2022-11-20T06:11:55;5.88;;;3.30;;
16460;SDS011;8341;42.048;24.650;2022-11-20T06:14:22;9.10;;;4.63;;
16460;SDS011;8341;42.048;24.650;2022-11-20T06:16:49;2.97;;;2.40;;
16460;SDS011;8341;42.048;24.650;2022-11-20T06:19:15;4.43;;;1.55;;
16460;SDS011;8341;42.048;24.650;2022-11-20T06:21:44;4.55;;;2.35;;
16460;SDS011;8341;42.048;24.650;2022-11-20T06:24:10;5.63;;;1.88;;
16460;SDS011;8341;42.048;24.650;2022-11-20T06:26:37;3.13;;;1.77;;
16460;SDS011;8341;42.048;24.650;2022-11-20T06:29:04;4.07;;;1.30;;
16460;SDS011;8341;42.048;24.650;2022-11-20T06:31:31;2.70;;;2.05;;
16460;SDS011;8341;42.048;24.650;2022-11-20T06:34:00;2.70;;;1.30;;
16460;SDS011;8341;42.048;24.650;2022-11-20T06:36:27;4.72;;;2.55;;
16460;SDS011;8341;42.048;24.650;2022-11-20T06:38:55;7.65;;;6.05;;
16460;SDS011;8341;42.048;24.650;2022-11-20T06:41:22;8.75;;;2.00;;
16460;SDS011;8341;42.048;24.650;2022-11-20T06:43:50;3.55;;;1.58;;
16460;SDS011;8341;42.048;24.650;2022-11-20T06:46:18;3.10;;;1.15;;
16460;SDS011;8341;42.048;24.650;2022-11-20T06:48:46;5.05;;;2.47;;
16460;SDS011;8341;42.048;24.650;2022-11-20T06:51:14;12.60;;;5.47;;
16460;SDS011;8341;42.048;24.650;2022-11-20T06:53:41;7.05;;;3.22;;
16460;SDS011;8341;42.048;24.650;2022-11-20T06:56:09;5.28;;;2.10;;
16460;SDS011;8341;42.048;24.650;2022-11-20T06:58:36;7.07;;;1.63;;
16460;SDS011;8341;42.048;24.650;2022-11-20T07:01:03;3.25;;;1.45;;
16460;SDS011;8341;42.048;24.650;2022-11-20T07:03:32;8.15;;;4.45;;
16460;SDS011;8341;42.048;24.650;2022-11-20T07:05:59;6.28;;;2.35;;
16460;SDS011;8341;42.048;24.650;2022-11-20T07:08:27;7.22;;;2.95;;
16460;SDS011;8341;42.048;24.650;2022-11-20T07:10:56;22.27;;;15.48;;
16460;SDS011;8341;42.048;24.650;2022-11-20T07:13:26;9.75;;;6.78;;
16460;SDS011;8341;42.048;24.650;2022-11-20T07:15:52;16.52;;;9.40;;
16460;SDS011;8341;42.048;24.650;2022-11-20T07:18:19;7.50;;;3.00;;
16460;SDS011;8341;42.048;24.650;2022-11-20T07:20:46;6.50;;;2.55;;
16460;SDS011;8341;42.048;24.650;2022-11-20T07:23:13;9.77;;;5.22;;
16460;SDS011;8341;42.048;24.650;2022-11-20T07:25:40;5.25;;;1.30;;
16460;SDS011;8341;42.048;24.650;2022-11-20T07:28:07;6.47;;;4.25;;
16460;SDS011;8341;42.048;24.650;2022-11-20T07:30:37;10.07;;;5.18;;
16460;SDS011;8341;42.048;24.650;2022-11-20T07:33:04;3.42;;;1.05;;
16460;SDS011;8341;42.048;24.650;2022-11-20T07:35:30;4.85;;;2.22;;
16460;SDS011;8341;42.048;24.650;2022-11-20T07:37:57;2.97;;;1.35;;
16460;SDS011;8341;42.048;24.650;2022-11-20T07:40:24;2.22;;;1.10;;
16460;SDS011;8341;42.048;24.650;2022-11-20T07:42:51;4.15;;;1.23;;
16460;SDS011;8341;42.048;24.650;2022-11-20T07:45:19;3.72;;;1.25;;
16460;SDS011;8341;42.048;24.650;2022-11-20T07:47:48;6.25;;;3.22;;
16460;SDS011;8341;42.048;24.650;2022-11-20T07:50:16;6.65;;;4.15;;
16460;SDS011;8341;42.048;24.650;2022-11-20T07:52:43;8.48;;;3.67;;
16460;SDS011;8341;42.048;24.650;2022-11-20T07:55:10;5.45;;;2.00;;
16460;SDS011;8341;42.048;24.650;2022-11-20T07:57:37;6.35;;;1.02;;
16460;SDS011;8341;42.048;24.650;2022-11-20T08:00:05;3.95;;;1.08;;
16460;SDS011;8341;42.048;24.650;2022-11-20T08:02:34;5.32;;;1.50;;
16460;SDS011;8341;42.048;24.650;2022-11-20T08:05:05;4.15;;;2.05;;
16460;SDS011;8341;42.048;24.650;2022-11-20T08:07:35;3.72;;;1.50;;
16460;SDS011;8341;42.048;24.650;2022-11-20T08:10:03;3.33;;;1.17;;
16460;SDS011;8341;42.048;24.650;2022-11-20T08:12:30;5.95;;;1.65;;
16460;SDS011;8341;42.048;24.650;2022-11-20T08:15:15;3.67;;;1.25;;
16460;SDS011;8341;42.048;24.650;2022-11-20T08:17:42;4.15;;;1.60;;
16460;SDS011;8341;42.048;24.650;2022-11-20T08:20:10;4.78;;;1.60;;
16460;SDS011;8341;42.048;24.650;2022-11-20T08:22:37;3.60;;;1.67;;
16460;SDS011;8341;42.048;24.650;2022-11-20T08:25:04;6.40;;;1.80;;
16460;SDS011;8341;42.048;24.650;2022-11-20T08:27:31;2.85;;;1.20;;
16460;SDS011;8341;42.048;24.650;2022-11-20T08:29:58;5.20;;;1.17;;
16460;SDS011;8341;42.048;24.650;2022-11-20T08:32:25;5.75;;;1.38;;
16460;SDS011;8341;42.048;24.650;2022-11-20T08:34:51;5.97;;;1.40;;
16460;SDS011;8341;42.048;24.650;2022-11-20T08:37:20;3.78;;;1.27;;
16460;SDS011;8341;42.048;24.650;2022-11-20T08:39:46;5.10;;;1.10;;
16460;SDS011;8341;42.048;24.650;2022-11-20T08:42:13;3.28;;;1.05;;
16460;SDS011;8341;42.048;24.650;2022-11-20T08:44:40;3.53;;;1.15;;
16460;SDS011;8341;42.048;24.650;2022-11-20T08:47:08;3.95;;;1.20;;
16460;SDS011;8341;42.048;24.650;2022-11-20T08:49:34;2.65;;;1.10;;
16460;SDS011;8341;42.048;24.650;2022-11-20T08:52:01;4.25;;;1.55;;
16460;SDS011;8341;42.048;24.650;2022-11-20T08:54:29;8.02;;;1.50;;
16460;SDS011;8341;42.048;24.650;2022-11-20T08:56:56;5.60;;;1.75;;
16460;SDS011;8341;42.048;24.650;2022-11-20T08:59:23;5.93;;;1.88;;
16460;SDS011;8341;42.048;24.650;2022-11-20T09:01:50;4.47;;;1.48;;
16460;SDS011;8341;42.048;24.650;2022-11-20T09:04:16;4.78;;;1.52;;
16460;SDS011;8341;42.048;24.650;2022-11-20T09:06:43;5.25;;;1.45;;
16460;SDS011;8341;42.048;24.650;2022-11-20T09:09:10;6.35;;;1.98;;
16460;SDS011;8341;42.048;24.650;2022-11-20T09:11:38;5.82;;;2.47;;
16460;SDS011;8341;42.048;24.650;2022-11-20T09:14:05;7.07;;;1.50;;
16460;SDS011;8341;42.048;24.650;2022-11-20T09:16:32;4.07;;;1.67;;
16460;SDS011;8341;42.048;24.650;2022-11-20T09:18:59;6.07;;;2.20;;
16460;SDS011;8341;42.048;24.650;2022-11-20T09:21:25;5.93;;;1.58;;
16460;SDS011;8341;42.048;24.650;2022-11-20T09:23:52;6.03;;;1.63;;
16460;SDS011;8341;42.048;24.650;2022-11-20T09:26:19;6.15;;;1.42;;
16460;SDS011;8341;42.048;24.650;2022-11-20T09:28:47;5.50;;;1.50;;
16460;SDS011;8341;42.048;24.650;2022-11-20T09:31:17;5.32;;;1.23;;
16460;SDS011;8341;42.048;24.650;2022-11-20T09:33:48;6.60;;;1.60;;
16460;SDS011;8341;42.048;24.650;2022-11-20T09:36:14;7.70;;;1.85;;
16460;SDS011;8341;42.048;24.650;2022-11-20T09:38:43;4.88;;;1.30;;
16460;SDS011;8341;42.048;24.650;2022-11-20T09:41:17;7.47;;;1.48;;
16460;SDS011;8341;42.048;24.650;2022-11-20T09:44:19;6.95;;;1.38;;
16460;SDS011;8341;42.048;24.650;2022-11-20T09:47:00;9.60;;;2.60;;
16460;SDS011;8341;42.048;24.650;2022-11-20T09:49:36;7.05;;;1.55;;
16460;SDS011;8341;42.048;24.650;2022-11-20T09:52:20;9.15;;;1.27;;
16460;SDS011;8341;42.048;24.650;2022-11-20T09:54:55;14.63;;;3.63;;
16460;SDS011;8341;42.048;24.650;2022-11-20T09:57:23;10.93;;;2.50;;
16460;SDS011;8341;42.048;24.650;2022-11-20T10:00:00;15.45;;;1.90;;
16460;SDS011;8341;42.048;24.650;2022-11-20T10:02:30;9.32;;;1.58;;
16460;SDS011;8341;42.048;24.650;2022-11-20T10:05:06;11.30;;;2.25;;
16460;SDS011;8341;42.048;24.650;2022-11-20T10:07:39;8.90;;;2.40;;
16460;SDS011;8341;42.048;24.650;2022-11-20T10:10:14;6.38;;;1.35;;
16460;SDS011;8341;42.048;24.650;2022-11-20T10:12:46;9.57;;;1.58;;
16460;SDS011;8341;42.048;24.650;2022-11-20T10:15:31;6.82;;;2.47;;
16460;SDS011;8341;42.048;24.650;2022-11-20T10:18:10;12.80;;;2.40;;
16460;SDS011;8341;42.048;24.650;2022-11-20T10:20:46;12.07;;;1.70;;
16460;SDS011;8341;42.048;24.650;2022-11-20T10:23:26;8.95;;;1.70;;
16460;SDS011;8341;42.048;24.650;2022-11-20T10:26:03;15.70;;;2.40;;
16460;SDS011;8341;42.048;24.650;2022-11-20T10:28:46;11.18;;;1.95;;
16460;SDS011;8341;42.048;24.650;2022-11-20T10:31:25;12.02;;;1.95;;
16460;SDS011;8341;42.048;24.650;2022-11-20T10:33:58;13.57;;;1.85;;
16460;SDS011;8341;42.048;24.650;2022-11-20T10:36:33;14.70;;;1.88;;
16460;SDS011;8341;42.048;24.650;2022-11-20T10:39:04;9.27;;;1.48;;
16460;SDS011;8341;42.048;24.650;2022-11-20T10:41:38;10.13;;;1.88;;
16460;SDS011;8341;42.048;24.650;2022-11-20T10:44:09;11.70;;;1.88;;
16460;SDS011;8341;42.048;24.650;2022-11-20T10:47:02;19.30;;;4.90;;
16460;SDS011;8341;42.048;24.650;2022-11-20T10:49:30;9.30;;;1.98;;
16460;SDS011;8341;42.048;24.650;2022-11-20T10:52:00;8.65;;;1.90;;
16460;SDS011;8341;42.048;24.650;2022-11-20T10:54:37;11.55;;;2.28;;
16460;SDS011;8341;42.048;24.650;2022-11-20T10:57:17;7.68;;;1.40;;
16460;SDS011;8341;42.048;24.650;2022-11-20T10:59:54;12.18;;;1.95;;
16460;SDS011;8341;42.048;24.650;2022-11-20T11:02:34;14.87;;;2.37;;
16460;SDS011;8341;42.048;24.650;2022-11-20T11:05:09;15.67;;;2.50;;
16460;SDS011;8341;42.048;24.650;2022-11-20T11:07:49;10.90;;;2.65;;
16460;SDS011;8341;42.048;24.650;2022-11-20T11:10:21;13.05;;;2.40;;
16460;SDS011;8341;42.048;24.650;2022-11-20T11:12:52;11.93;;;2.70;;
16460;SDS011;8341;42.048;24.650;2022-11-20T11:15:25;9.15;;;2.03;;
16460;SDS011;8341;42.048;24.650;2022-11-20T11:17:55;13.18;;;2.13;;
16460;SDS011;8341;42.048;24.650;2022-11-20T11:20:22;11.27;;;2.42;;
16460;SDS011;8341;42.048;24.650;2022-11-20T11:22:51;13.50;;;2.20;;
16460;SDS011;8341;42.048;24.650;2022-11-20T11:25:24;10.93;;;1.92;;
16460;SDS011;8341;42.048;24.650;2022-11-20T11:27:54;11.05;;;1.80;;
16460;SDS011;8341;42.048;24.650;2022-11-20T11:30:23;12.57;;;2.40;;
16460;SDS011;8341;42.048;24.650;2022-11-20T11:33:03;11.15;;;2.25;;
16460;SDS011;8341;42.048;24.650;2022-11-20T11:35:32;11.82;;;2.28;;
16460;SDS011;8341;42.048;24.650;2022-11-20T11:38:03;11.57;;;2.15;;
16460;SDS011;8341;42.048;24.650;2022-11-20T11:40:33;12.82;;;2.50;;
16460;SDS011;8341;42.048;24.650;2022-11-20T11:43:04;12.50;;;1.85;;
16460;SDS011;8341;42.048;24.650;2022-11-20T11:45:53;12.10;;;2.13;;
16460;SDS011;8341;42.048;24.650;2022-11-20T11:48:21;11.32;;;2.03;;
16460;SDS011;8341;42.048;24.650;2022-11-20T11:50:48;11.80;;;2.00;;
16460;SDS011;8341;42.048;24.650;2022-11-20T11:53:17;11.40;;;2.20;;
16460;SDS011;8341;42.048;24.650;2022-11-20T11:55:46;13.55;;;2.13;;
16460;SDS011;8341;42.048;24.650;2022-11-20T11:58:19;12.07;;;1.67;;
16460;SDS011;8341;42.048;24.650;2022-11-20T12:01:00;9.98;;;2.00;;
16460;SDS011;8341;42.048;24.650;2022-11-20T12:03:36;11.00;;;2.22;;
16460;SDS011;8341;42.048;24.650;2022-11-20T12:06:08;11.60;;;1.88;;
16460;SDS011;8341;42.048;24.650;2022-11-20T12:08:41;10.93;;;1.85;;
16460;SDS011;8341;42.048;24.650;2022-11-20T12:11:13;12.02;;;2.00;;
16460;SDS011;8341;42.048;24.650;2022-11-20T12:13:47;11.88;;;2.25;;
16460;SDS011;8341;42.048;24.650;2022-11-20T12:16:19;8.57;;;1.55;;
16460;SDS011;8341;42.048;24.650;2022-11-20T12:18:49;15.35;;;2.42;;
16460;SDS011;8341;42.048;24.650;2022-11-20T12:21:18;11.18;;;1.75;;
16460;SDS011;8341;42.048;24.650;2022-11-20T12:23:53;10.77;;;2.03;;
16460;SDS011;8341;42.048;24.650;2022-11-20T12:26:40;12.88;;;2.25;;
16460;SDS011;8341;42.048;24.650;2022-11-20T12:29:18;8.52;;;1.85;;
16460;SDS011;8341;42.048;24.650;2022-11-20T12:32:02;10.23;;;1.75;;
16460;SDS011;8341;42.048;24.650;2022-11-20T12:34:46;8.18;;;2.00;;
16460;SDS011;8341;42.048;24.650;2022-11-20T12:37:23;10.30;;;1.90;;
16460;SDS011;8341;42.048;24.650;2022-11-20T12:40:02;12.00;;;2.55;;
16460;SDS011;8341;42.048;24.650;2022-11-20T12:42:44;14.02;;;2.20;;
16460;SDS011;8341;42.048;24.650;2022-11-20T12:45:41;7.45;;;1.90;;
16460;SDS011;8341;42.048;24.650;2022-11-20T12:54:26;5.43;;;1.50;;
16460;SDS011;8341;42.048;24.650;2022-11-20T12:57:08;12.45;;;1.90;;
16460;SDS011;8341;42.048;24.650;2022-11-20T12:59:49;12.35;;;2.40;;
16460;SDS011;8341;42.048;24.650;2022-11-20T13:02:29;11.02;;;1.92;;
16460;SDS011;8341;42.048;24.650;2022-11-20T13:05:12;10.38;;;1.70;;
16460;SDS011;8341;42.048;24.650;2022-11-20T13:07:47;10.20;;;2.08;;
16460;SDS011;8341;42.048;24.650;2022-11-20T13:10:19;9.85;;;2.10;;
16460;SDS011;8341;42.048;24.650;2022-11-20T13:12:53;8.85;;;2.10;;
16460;SDS011;8341;42.048;24.650;2022-11-20T13:15:33;10.15;;;2.10;;
16460;SDS011;8341;42.048;24.650;2022-11-20T13:18:08;15.00;;;2.80;;
16460;SDS011;8341;42.048;24.650;2022-11-20T13:20:41;7.40;;;2.20;;
16460;SDS011;8341;42.048;24.650;2022-11-20T13:23:10;9.45;;;2.05;;
16460;SDS011;8341;42.048;24.650;2022-11-20T13:25:38;10.93;;;2.60;;
16460;SDS011;8341;42.048;24.650;2022-11-20T13:30:56;10.57;;;2.67;;
16460;SDS011;8341;42.048;24.650;2022-11-20T13:33:27;8.63;;;2.45;;
16460;SDS011;8341;42.048;24.650;2022-11-20T13:35:57;13.52;;;2.55;;
16460;SDS011;8341;42.048;24.650;2022-11-20T13:38:27;11.65;;;3.00;;
16460;SDS011;8341;42.048;24.650;2022-11-20T13:40:54;11.48;;;3.05;;
16460;SDS011;8341;42.048;24.650;2022-11-20T13:43:26;11.82;;;3.47;;
16460;SDS011;8341;42.048;24.650;2022-11-20T13:45:56;11.27;;;2.40;;
16460;SDS011;8341;42.048;24.650;2022-11-20T13:48:25;12.10;;;2.90;;
16460;SDS011;8341;42.048;24.650;2022-11-20T13:50:57;10.48;;;2.72;;
16460;SDS011;8341;42.048;24.650;2022-11-20T13:53:41;11.75;;;2.20;;
16460;SDS011;8341;42.048;24.650;2022-11-20T13:56:22;12.93;;;2.17;;
16460;SDS011;8341;42.048;24.650;2022-11-20T13:58:58;10.70;;;1.73;;
16460;SDS011;8341;42.048;24.650;2022-11-20T14:01:31;9.48;;;2.00;;
16460;SDS011;8341;42.048;24.650;2022-11-20T14:03:59;5.80;;;1.20;;
16460;SDS011;8341;42.048;24.650;2022-11-20T14:06:34;3.40;;;0.80;;
16460;SDS011;8341;42.048;24.650;2022-11-20T14:09:11;4.60;;;0.85;;
16460;SDS011;8341;42.048;24.650;2022-11-20T14:11:45;3.88;;;0.77;;
16460;SDS011;8341;42.048;24.650;2022-11-20T14:14:14;3.65;;;0.90;;
16460;SDS011;8341;42.048;24.650;2022-11-20T14:16:42;1.85;;;0.70;;
16460;SDS011;8341;42.048;24.650;2022-11-20T14:19:26;3.13;;;1.00;;
16460;SDS011;8341;42.048;24.650;2022-11-20T14:22:06;3.92;;;0.70;;
16460;SDS011;8341;42.048;24.650;2022-11-20T14:24:36;3.75;;;0.70;;
16460;SDS011;8341;42.048;24.650;2022-11-20T14:27:03;3.05;;;0.70;;
16460;SDS011;8341;42.048;24.650;2022-11-20T14:29:33;5.22;;;1.70;;
16460;SDS011;8341;42.048;24.650;2022-11-20T14:32:02;3.95;;;1.02;;
16460;SDS011;8341;42.048;24.650;2022-11-20T14:34:30;3.90;;;0.82;;
16460;SDS011;8341;42.048;24.650;2022-11-20T14:37:03;7.82;;;4.07;;
16460;SDS011;8341;42.048;24.650;2022-11-20T14:39:32;5.57;;;1.60;;
16460;SDS011;8341;42.048;24.650;2022-11-20T14:42:02;3.30;;;0.75;;
16460;SDS011;8341;42.048;24.650;2022-11-20T14:44:40;5.15;;;1.45;;
16460;SDS011;8341;42.048;24.650;2022-11-20T14:47:08;8.10;;;2.35;;
16460;SDS011;8341;42.048;24.650;2022-11-20T14:49:38;6.57;;;1.20;;
16460;SDS011;8341;42.048;24.650;2022-11-20T14:52:10;2.67;;;1.10;;
16460;SDS011;8341;42.048;24.650;2022-11-20T14:54:43;2.53;;;1.13;;
16460;SDS011;8341;42.048;24.650;2022-11-20T14:57:21;5.38;;;1.20;;
16460;SDS011;8341;42.048;24.650;2022-11-20T15:00:03;8.98;;;2.05;;
16460;SDS011;8341;42.048;24.650;2022-11-20T15:02:32;7.65;;;1.40;;
16460;SDS011;8341;42.048;24.650;2022-11-20T15:04:59;7.78;;;1.15;;
16460;SDS011;8341;42.048;24.650;2022-11-20T15:07:28;5.72;;;1.48;;
16460;SDS011;8341;42.048;24.650;2022-11-20T15:10:00;4.00;;;0.80;;
16460;SDS011;8341;42.048;24.650;2022-11-20T15:12:29;5.22;;;0.77;;
16460;SDS011;8341;42.048;24.650;2022-11-20T15:14:57;3.40;;;1.02;;